Latest Weather Observations for Kiama

IDN60801

Issued at 7:33 pm EDT Saturday 16 December 2017 (issued every 30 minutes, with the page automatically refreshed every 10 minutes)

About weather observations | Map of weather stations | Latest weather observations for NSW | Other Formats
Station Details ID: 068242 Name: KIAMA (BOMBO HEADLAND) Lat: -34.65 Lon: 150.86 Height: 15.5 m
Data from the previous 72 hours. | See also: Recent months at Kiama
Date/Time
EDT
Temp
°C
App
Temp
°C
Dew
Point
°C
Rel
Hum
%
Delta-T
°C
Wind Press
QNH
hPa
Press
MSL
hPa
Rain since
9am
mm
Dir  Spd
km/h
Gust
km/h
Spd
kts
Gust
kts
16/07:30pm 21.9 23.4 18.9 83 1.9 SSE 9 15 5 8 - - 0.0
16/07:00pm 23.6 26.3 19.5 78 2.6 SE 4 9 2 5 - - 0.0
16/06:30pm 23.6 25.1 19.7 79 2.5 NNE 11 17 6 9 - - 0.0
16/06:00pm 23.1 24.4 19.3 79 2.4 N 11 17 6 9 - - 0.0
16/05:30pm 23.5 24.4 19.2 77 2.7 N 13 20 7 11 - - 0.0
16/05:00pm 23.6 24.6 19.5 78 2.6 N 13 20 7 11 - - 0.0
16/04:30pm 23.2 23.9 19.6 80 2.3 N 15 19 8 10 - - 0.0
16/04:00pm 24.5 25.8 20.2 77 2.8 N 13 19 7 10 - - 0.0
16/03:30pm 24.8 25.4 20.3 76 2.9 NNE 17 24 9 13 - - 0.0
16/03:00pm 25.1 26.6 20.6 76 2.9 N 13 22 7 12 - - 0.0
16/02:30pm 24.5 24.9 19.8 75 3.0 N 17 22 9 12 - - 0.0
16/02:00pm 24.7 25.6 20.0 75 3.0 N 15 22 8 12 - - 0.0
16/01:30pm 24.7 24.8 20.0 75 3.0 N 19 24 10 13 - - 0.0
16/01:00pm 24.7 25.6 20.0 75 3.0 N 15 24 8 13 - - 0.0
16/12:30pm 24.9 25.1 20.2 75 3.1 N 19 30 10 16 - - 0.0
16/12:00pm 24.5 25.0 20.8 80 2.4 NNE 19 30 10 16 - - 0.0
16/11:30am 25.1 25.6 20.8 77 2.8 NNE 19 28 10 15 - - 0.0
16/11:00am 24.3 23.7 19.8 76 2.9 NNE 22 32 12 17 - - 0.0
16/10:30am 27.1 29.1 20.0 65 4.6 NNE 9 15 5 8 - - 0.0
16/10:00am 25.4 26.6 19.1 68 4.0 N 11 17 6 9 - - 0.0
16/09:30am 23.8 24.7 19.3 76 2.9 NNE 13 17 7 9 - - 0.0
16/09:00am 24.5 26.0 20.6 79 2.5 NNE 13 17 7 9 - - 0.6
16/08:30am 22.7 23.8 20.4 87 1.5 N 15 19 8 10 - - 0.6
16/08:00am 21.6 22.2 19.5 88 1.3 N 15 19 8 10 - - 0.6
16/07:30am 21.8 22.8 20.3 91 1.0 N 15 19 8 10 - - 0.6
16/07:00am 21.0 22.1 19.7 92 0.8 N 13 19 7 10 - - 0.6
16/06:30am 20.6 21.6 19.4 93 0.8 N 13 19 7 10 - - 0.6
16/06:00am 20.5 21.4 19.2 92 0.8 N 13 22 7 12 - - 0.6
16/05:30am 20.5 22.4 19.0 91 0.9 N 7 11 4 6 - - 0.6
16/05:00am 20.9 22.5 19.2 90 1.1 N 9 13 5 7 - - 0.6
16/04:30am 21.2 22.7 19.8 92 0.9 NW 11 15 6 8 - - 0.6
16/04:00am 20.4 22.4 19.1 92 0.8 NNE 7 13 4 7 - - 0.6
16/03:30am 20.9 21.9 19.4 91 1.0 NNE 13 20 7 11 - - 0.6
16/03:00am 21.3 23.0 19.4 89 1.2 N 9 15 5 8 - - 0.6
16/02:30am 22.4 23.8 19.6 84 1.8 NW 11 17 6 9 - - 0.6
16/02:00am 22.3 23.3 20.2 88 1.4 NNW 15 22 8 12 - - 0.6
16/01:30am 21.4 23.9 19.9 91 1.0 NNW 6 7 3 4 - - 0.6
16/01:00am 21.4 19.7 19.9 91 1.0 N 28 35 15 19 - - 0.6
16/12:30am 21.2 21.5 19.5 90 1.1 NNE 17 30 9 16 - - 0.6
16/12:00am 21.7 23.4 19.4 87 1.5 N 9 15 5 8 - - 0.2
 
Date/Time
EDT
Temp
°C
App
Temp
°C
Dew
Point
°C
Rel
Hum
%
Delta-T
°C
Wind Press
QNH
hPa
Press
MSL
hPa
Rain since
9am
mm
Dir  Spd
km/h
Gust
km/h
Spd
kts
Gust
kts
15/11:30pm 22.4 23.8 19.6 84 1.8 N 11 20 6 11 - - 0.2
15/11:00pm 21.9 21.6 19.1 84 1.8 N 19 26 10 14 - - 0.2
15/10:30pm 21.3 22.9 19.2 88 1.3 N 9 11 5 6 - - 0.2
15/10:00pm 22.1 23.3 19.8 87 1.5 N 13 17 7 9 - - 0.2
15/09:30pm 21.3 22.8 19.8 91 1.0 N 11 20 6 11 - - 0.2
15/09:00pm 21.3 22.4 19.6 90 1.1 N 13 19 7 10 - - 0.2
15/08:30pm 21.2 22.6 19.5 90 1.1 N 11 19 6 10 - - 0.2
15/08:00pm 20.9 21.4 19.2 90 1.1 N 15 20 8 11 - - 0.2
15/07:30pm 21.5 22.1 19.4 88 1.3 N 15 22 8 12 - - 0.2
15/07:00pm 21.7 21.9 19.4 87 1.5 N 17 20 9 11 - - 0.2
15/06:30pm 21.4 22.2 19.0 86 1.5 N 13 19 7 10 - - 0.2
15/06:00pm 21.8 21.9 19.2 85 1.6 NNE 17 22 9 12 - - 0.2
15/05:30pm 22.2 23.2 19.4 84 1.8 NNE 13 15 7 8 - - 0.2
15/05:00pm 22.6 24.0 19.6 83 1.9 NNE 11 15 6 8 - - 0.2
15/04:30pm 23.1 25.2 20.1 83 1.9 NNE 9 13 5 7 - - 0.2
15/04:00pm 22.4 24.7 19.4 83 1.9 N 6 7 3 4 - - 0.2
15/03:30pm 22.0 24.6 19.2 84 1.8 NNE 4 6 2 3 - - 0.2
15/03:00pm 21.4 23.3 18.6 84 1.8 NE 6 9 3 5 - - 0.2
15/02:30pm 21.9 23.7 18.7 82 2.0 ENE 7 9 4 5 - - 0.2
15/02:00pm 22.8 25.0 19.2 80 2.3 N 6 7 3 4 - - 0.2
15/01:30pm 21.9 24.0 18.9 83 1.9 N 6 7 3 4 - - 0.2
15/01:00pm 21.7 23.7 18.7 83 1.9 N 6 6 3 3 - - 0.2
15/12:30pm 21.3 23.2 18.5 84 1.8 SSW 6 7 3 4 - - 0.2
15/12:00pm 20.8 21.6 18.2 85 1.6 S 11 13 6 7 - - 0.2
15/11:30am 20.7 21.5 18.1 85 1.6 SSW 11 15 6 8 - - 0.2
15/11:00am 20.4 20.1 18.2 87 1.4 SSW 17 22 9 12 - - 0.2
15/10:30am 20.8 20.3 17.8 83 1.9 SSW 17 24 9 13 - - 0.0
15/10:00am 20.4 19.7 18.2 87 1.4 SW 19 28 10 15 - - 0.0
15/09:30am 20.4 18.9 17.6 84 1.7 SSW 22 30 12 16 - - 0.0
15/09:00am 20.6 19.1 17.6 83 1.8 SW 22 32 12 17 - - 3.6
15/08:30am 20.4 18.4 17.4 83 1.8 SSW 24 33 13 18 - - 3.6
15/08:00am 20.3 19.0 17.3 83 1.8 SSW 20 32 11 17 - - 3.6
15/07:30am 20.1 18.1 17.5 85 1.6 SSW 24 33 13 18 - - 3.6
15/07:00am 19.9 16.4 17.5 86 1.5 SSW 32 41 17 22 - - 3.6
15/06:30am 19.8 17.0 17.4 86 1.5 SSW 28 35 15 19 - - 3.6
15/06:00am 19.8 17.3 17.2 85 1.6 SSW 26 33 14 18 - - 3.4
15/05:30am 20.1 17.3 17.3 84 1.7 SSW 28 37 15 20 - - 3.2
15/05:00am 20.2 16.7 17.4 84 1.7 SSW 32 43 17 23 - - 3.2
15/04:30am 20.2 16.5 17.4 84 1.7 SSW 33 48 18 26 - - 3.2
15/04:00am 20.3 15.9 17.5 84 1.7 SSW 37 52 20 28 - - 3.2
15/03:30am 20.4 16.0 17.6 84 1.7 SSW 37 50 20 27 - - 3.2
15/03:00am 20.5 15.4 17.7 84 1.7 SSW 41 56 22 30 - - 3.2
15/02:30am 20.8 15.9 18.2 85 1.6 SSW 41 56 22 30 - - 3.2
15/02:00am 21.1 18.0 18.5 85 1.6 SSW 32 48 17 26 - - 3.2
15/01:30am 21.3 17.4 18.7 85 1.6 SSW 37 46 20 25 - - 3.2
15/01:00am 21.6 17.9 19.2 86 1.5 SSW 37 46 20 25 - - 3.2
15/12:30am 22.3 19.4 18.9 81 2.1 S 32 54 17 29 - - 3.2
15/12:25am 22.5 22.1 19.3 82 2.0 SSE 20 43 11 23 - - 3.2
15/12:00am 22.0 23.8 19.5 86 1.6 SW 9 13 5 7 - - 3.2
 
Date/Time
EDT
Temp
°C
App
Temp
°C
Dew
Point
°C
Rel
Hum
%
Delta-T
°C
Wind Press
QNH
hPa
Press
MSL
hPa
Rain since
9am
mm
Dir  Spd
km/h
Gust
km/h
Spd
kts
Gust
kts
14/11:30pm 21.8 24.0 19.5 87 1.5 N 7 11 4 6 - - 3.2
14/11:00pm 22.1 23.1 19.5 85 1.7 N 13 17 7 9 - - 3.2
14/10:30pm 22.2 23.7 18.8 81 2.1 NNW 9 19 5 10 - - 2.8
14/10:00pm 22.2 22.0 18.6 80 2.3 N 17 22 9 12 - - 2.8
14/09:30pm 22.2 23.5 19.4 84 1.8 N 11 17 6 9 - - 2.8
14/09:00pm 22.1 24.5 18.9 82 2.0 NW 4 9 2 5 - - 2.8
14/08:30pm 22.3 23.6 19.3 83 1.9 NNE 11 15 6 8 - - 2.8
14/08:00pm 22.4 24.1 19.4 83 1.9 WNW 9 19 5 10 - - 2.8
14/07:30pm 22.1 20.7 18.7 81 2.1 N 24 41 13 22 - - 2.8
14/07:00pm 22.2 22.4 18.6 80 2.3 NE 15 30 8 16 - - 2.4
14/06:30pm 23.6 25.3 18.5 73 3.2 NNW 7 9 4 5 - - 0.2
14/06:00pm 24.2 24.8 18.6 71 3.5 N 13 20 7 11 - - 0.2
14/05:30pm 24.3 22.2 18.0 68 4.0 N 26 44 14 24 - - 0.2
14/05:23pm 25.1 24.3 18.1 65 4.4 NNW 19 44 10 24 - - 0.2
14/05:00pm 24.9 26.1 19.1 70 3.7 N 11 22 6 12 - - 0.2
14/04:30pm 24.1 24.0 19.6 76 2.9 NNE 19 32 10 17 - - 0.2
14/04:00pm 24.8 24.0 18.0 66 4.3 N 19 24 10 13 - - 0.0
14/03:30pm 26.5 26.9 19.1 64 4.8 N 15 20 8 11 - - 0.0
14/03:00pm 26.7 27.9 19.8 66 4.5 NNE 13 20 7 11 - - 0.0
14/02:30pm 27.4 28.3 20.0 64 4.8 NNE 15 22 8 12 - - 0.0
14/02:00pm 27.0 28.3 20.1 66 4.5 N 13 19 7 10 - - 0.0
14/01:30pm 26.2 27.6 20.3 70 3.9 NNE 13 17 7 9 - - 0.0
14/01:00pm 26.0 26.3 19.6 68 4.1 NNE 17 24 9 13 - - 0.0
14/12:30pm 25.9 26.3 19.8 69 4.0 NNE 17 22 9 12 - - 0.0
14/12:00pm 25.6 26.7 19.7 70 3.8 NNE 13 19 7 10 - - 0.0
14/11:30am 24.9 26.0 19.7 73 3.4 NNE 13 22 7 12 - - 0.0
14/11:00am 25.0 25.6 19.4 71 3.6 NNE 15 22 8 12 - - 0.0
14/10:30am 24.4 24.1 19.2 73 3.3 N 19 24 10 13 - - 0.0
14/10:00am 24.1 23.7 19.0 73 3.2 NNE 19 24 10 13 - - 0.0
14/09:30am 24.2 24.6 19.1 73 3.3 NNE 15 20 8 11 - - 0.0
14/09:00am 23.5 24.1 18.6 74 3.1 N 13 17 7 9 - - 0.0
14/08:30am 23.6 23.4 18.5 73 3.2 N 17 20 9 11 - - 0.0
14/08:00am 22.5 23.7 19.1 81 2.2 N 11 15 6 8 - - 0.0
14/07:30am 21.6 23.3 18.6 83 1.9 N 7 11 4 6 - - 0.0
14/07:00am 20.5 22.3 18.4 88 1.3 NNW 6 7 3 4 - - 0.0
14/06:30am 19.8 21.6 18.3 91 0.9 N 6 9 3 5 - - 0.0
14/06:00am 19.6 21.3 18.1 91 0.9 NNW 6 7 3 4 - - 0.0
14/05:30am 19.7 21.4 18.4 92 0.8 NNW 7 13 4 7 - - 0.0
14/05:00am 19.7 21.0 18.4 92 0.8 N 9 13 5 7 - - 0.0
14/04:30am 19.8 21.1 18.5 92 0.8 NNW 9 15 5 8 - - 0.0
14/04:00am 19.6 20.4 18.1 91 0.9 N 11 15 6 8 - - 0.0
14/03:30am 19.6 21.3 18.1 91 0.9 N 6 7 3 4 - - 0.0
14/03:00am 19.8 21.7 18.5 92 0.8 N 6 9 3 5 - - 0.0
14/02:30am 19.6 20.7 18.1 91 0.9 N 9 9 5 5 - - 0.0
14/02:00am 19.9 22.1 18.4 91 0.9 N 4 9 2 5 - - 0.0
14/01:30am 20.0 21.6 18.3 90 1.1 N 7 11 4 6 - - 0.0
14/01:00am 20.1 21.4 18.4 90 1.1 N 9 15 5 8 - - 0.0
14/12:30am 20.4 21.7 18.5 89 1.2 N 9 15 5 8 - - 0.0
14/12:00am 20.9 20.9 19.0 89 1.2 N 17 20 9 11 - - 0.0
 
Date/Time
EDT
Temp
°C
App
Temp
°C
Dew
Point
°C
Rel
Hum
%
Delta-T
°C
Wind Press
QNH
hPa
Press
MSL
hPa
Rain since
9am
mm
Dir  Spd
km/h
Gust
km/h
Spd
kts
Gust
kts
13/11:30pm 21.0 21.4 18.9 88 1.3 N 15 24 8 13 - - 0.0
13/11:00pm 21.0 21.7 18.8 87 1.4 N 13 17 7 9 - - 0.0
13/10:30pm 21.1 20.7 18.9 87 1.4 N 19 24 10 13 - - 0.0
13/10:00pm 21.1 20.6 18.7 86 1.5 N 19 26 10 14 - - 0.0
13/09:30pm 21.3 20.9 18.9 86 1.5 N 19 30 10 16 - - 0.0
13/09:00pm 21.4 20.0 18.8 85 1.6 N 24 30 13 16 - - 0.0
13/08:30pm 21.5 19.7 18.7 84 1.8 N 26 32 14 17 - - 0.0
13/08:00pm 21.8 20.4 18.8 83 1.9 NNE 24 35 13 19 - - 0.0

Other Formats:

Comma delimited format used in spreadsheet applications
http://www.bom.gov.au/fwo/IDN60801/IDN60801.95749.axf

JavaScript Object Notation format (JSON) in row-major order
http://www.bom.gov.au/fwo/IDN60801/IDN60801.95749.json